createdAt,value
2023-04-22T00:01:10.367Z,100.00
2023-04-22T00:03:42.488Z,100.00
2023-04-22T00:06:12.445Z,100.00
2023-04-22T00:08:41.737Z,100.00
2023-04-22T00:11:11.453Z,100.00
2023-04-22T00:13:40.648Z,100.00
2023-04-22T00:16:10.120Z,100.00
2023-04-22T00:18:39.866Z,100.00
2023-04-22T00:21:09.270Z,100.00
2023-04-22T00:23:38.585Z,100.00
2023-04-22T00:26:07.889Z,100.00
2023-04-22T00:28:39.012Z,100.00
2023-04-22T00:31:08.508Z,100.00
2023-04-22T00:33:38.446Z,100.00
2023-04-22T00:36:08.140Z,100.00
2023-04-22T00:38:37.503Z,100.00
2023-04-22T00:41:08.683Z,100.00
2023-04-22T00:43:38.089Z,100.00
2023-04-22T00:46:07.803Z,100.00
2023-04-22T00:48:38.537Z,100.00
2023-04-22T00:51:08.345Z,100.00
2023-04-22T00:53:37.753Z,100.00
2023-04-22T00:56:08.078Z,100.00
2023-04-22T00:58:37.372Z,100.00
2023-04-22T01:01:07.181Z,100.00
2023-04-22T01:03:40.656Z,100.00
2023-04-22T01:06:10.295Z,100.00
2023-04-22T01:08:41.072Z,100.00
2023-04-22T01:11:10.331Z,100.00
2023-04-22T01:13:41.489Z,100.00
2023-04-22T01:16:11.146Z,100.00
2023-04-22T01:18:40.491Z,100.00
2023-04-22T01:21:09.993Z,100.00
2023-04-22T01:23:39.995Z,100.00
2023-04-22T01:26:09.268Z,100.00
2023-04-22T01:28:39.126Z,100.00
2023-04-22T01:31:09.770Z,100.00
2023-04-22T01:33:39.164Z,100.00
2023-04-22T01:36:10.347Z,100.00
2023-04-22T01:38:41.652Z,100.00
2023-04-22T01:41:11.076Z,100.00
2023-04-22T01:43:40.769Z,100.00
2023-04-22T01:46:10.828Z,100.00
2023-04-22T01:48:40.802Z,100.00
2023-04-22T01:51:10.103Z,100.00
2023-04-22T01:53:39.404Z,100.00
2023-04-22T01:56:08.808Z,100.00
2023-04-22T01:58:40.777Z,100.00
2023-04-22T02:01:12.261Z,100.00
2023-04-22T02:03:44.241Z,100.00
2023-04-22T02:06:15.024Z,100.00
2023-04-22T02:08:47.187Z,100.00
2023-04-22T02:11:17.621Z,100.00
2023-04-22T02:13:47.338Z,100.00
2023-04-22T02:16:16.697Z,100.00
2023-04-22T02:18:46.234Z,100.00
2023-04-22T02:21:15.950Z,100.00
2023-04-22T02:23:45.450Z,100.00
2023-04-22T02:26:14.954Z,100.00
2023-04-22T02:28:44.359Z,100.00
2023-04-22T02:31:13.921Z,100.00
2023-04-22T02:33:43.173Z,100.00
2023-04-22T02:36:12.567Z,100.00
2023-04-22T02:38:41.973Z,100.00
2023-04-22T02:41:11.594Z,100.00
2023-04-22T02:43:46.125Z,100.00
2023-04-22T02:46:16.706Z,100.00
2023-04-22T02:48:46.442Z,100.00
2023-04-22T02:51:16.261Z,100.00
2023-04-22T02:53:45.661Z,100.00
2023-04-22T02:56:15.062Z,100.00
2023-04-22T02:58:44.568Z,100.00
2023-04-22T03:01:13.893Z,100.00
2023-04-22T03:03:44.045Z,100.00
2023-04-22T03:06:15.744Z,100.00
2023-04-22T03:08:45.045Z,100.00
2023-04-22T03:11:14.654Z,100.00
2023-04-22T03:13:44.570Z,100.00
2023-04-22T03:16:14.177Z,100.00
2023-04-22T03:18:44.808Z,100.00
2023-04-22T03:21:15.138Z,100.00
2023-04-22T03:23:44.543Z,100.00
2023-04-22T03:26:14.251Z,100.00
2023-04-22T03:28:43.960Z,100.00
2023-04-22T03:31:13.260Z,100.00
2023-04-22T03:33:42.867Z,100.00
2023-04-22T03:36:19.031Z,100.00
2023-04-22T03:38:48.435Z,100.00
2023-04-22T03:41:18.043Z,100.00
2023-04-22T03:43:49.597Z,100.00
2023-04-22T03:46:19.877Z,100.00
2023-04-22T03:48:56.637Z,100.00
2023-04-22T03:51:29.502Z,100.00
2023-04-22T03:53:59.805Z,100.00
2023-04-22T03:56:30.128Z,100.00
2023-04-22T03:59:01.374Z,100.00
2023-04-22T04:01:30.980Z,100.00
2023-04-22T04:04:02.980Z,100.00
2023-04-22T04:06:39.617Z,100.00
2023-04-22T04:09:09.228Z,100.00
2023-04-22T04:11:38.546Z,100.00
2023-04-22T04:14:08.346Z,100.00
2023-04-22T04:16:48.402Z,100.00
2023-04-22T04:19:27.321Z,100.00
2023-04-22T04:21:57.252Z,100.00
2023-04-22T04:24:28.587Z,100.00
2023-04-22T04:27:04.435Z,100.00
2023-04-22T04:29:41.578Z,100.00
2023-04-22T04:32:15.939Z,100.00
2023-04-22T04:34:45.343Z,100.00
2023-04-22T04:37:17.834Z,100.00
2023-04-22T04:39:59.637Z,100.00
2023-04-22T04:42:34.557Z,100.00
2023-04-22T04:45:09.420Z,100.00
2023-04-22T04:47:39.235Z,100.00
2023-04-22T04:50:22.925Z,100.00
2023-04-22T04:52:52.990Z,100.00
2023-04-22T04:55:26.436Z,100.00
2023-04-22T04:57:56.364Z,100.00
2023-04-22T05:00:25.762Z,100.00
2023-04-22T05:02:55.461Z,100.00
2023-04-22T05:05:25.001Z,100.00
2023-04-22T05:07:54.482Z,99.80
2023-04-22T05:10:25.343Z,93.61
2023-04-22T05:12:55.545Z,90.08
2023-04-22T05:15:26.786Z,88.79
2023-04-22T05:17:56.001Z,87.38
2023-04-22T05:20:25.789Z,85.34
2023-04-22T05:22:55.634Z,78.87
2023-04-22T05:25:25.223Z,77.24
2023-04-22T05:27:59.344Z,74.64
2023-04-22T05:30:30.990Z,73.62
2023-04-22T05:33:00.644Z,69.28
2023-04-22T05:35:30.825Z,68.31
2023-04-22T05:38:01.251Z,64.66
2023-04-22T05:40:30.447Z,60.47
2023-04-22T05:43:00.780Z,57.52
2023-04-22T05:45:30.172Z,60.08
2023-04-22T05:47:59.952Z,58.64
2023-04-22T05:50:31.545Z,56.64
2023-04-22T05:53:06.678Z,54.69
2023-04-22T05:55:36.801Z,54.59
2023-04-22T05:58:06.922Z,52.84
2023-04-22T06:00:53.441Z,50.94
2023-04-22T06:03:37.360Z,46.11
2023-04-22T06:06:08.940Z,45.28
2023-04-22T06:08:38.322Z,42.74
2023-04-22T06:11:08.132Z,41.57
2023-04-22T06:13:38.080Z,41.12
2023-04-22T06:18:38.644Z,41.41
2023-04-22T06:21:10.880Z,39.85
2023-04-22T06:23:40.588Z,39.63
2023-04-22T06:26:09.979Z,40.09
2023-04-22T06:28:40.102Z,39.46
2023-04-22T06:31:13.733Z,36.51
2023-04-22T06:33:43.719Z,35.17
2023-04-22T06:36:14.247Z,34.77
2023-04-22T06:38:43.957Z,34.87
2023-04-22T06:41:33.438Z,35.11
2023-04-22T06:44:07.342Z,35.26
2023-04-22T06:47:35.647Z,33.93
2023-04-22T06:50:15.882Z,32.25
2023-04-22T06:52:58.089Z,32.13
2023-04-22T06:55:27.591Z,32.77
2023-04-22T06:57:57.003Z,32.64
2023-04-22T07:00:26.347Z,30.83
2023-04-22T07:02:56.439Z,30.27
2023-04-22T07:05:26.114Z,31.18
2023-04-22T07:07:55.944Z,32.33
2023-04-22T07:10:26.438Z,32.20
2023-04-22T07:13:27.223Z,29.87
2023-04-22T07:15:57.026Z,30.75
2023-04-22T07:18:26.460Z,31.93
2023-04-22T07:20:56.029Z,31.31
2023-04-22T07:23:25.530Z,30.23
2023-04-22T07:25:55.245Z,29.96
2023-04-22T07:28:24.750Z,29.34
2023-04-22T07:30:55.996Z,30.24
2023-04-22T07:33:25.506Z,30.22
2023-04-22T07:35:55.171Z,30.42
2023-04-22T07:38:25.227Z,30.63
2023-04-22T07:40:54.529Z,31.10
2023-04-22T07:43:24.099Z,30.79
2023-04-22T07:45:53.589Z,31.24
2023-04-22T07:48:23.501Z,32.04
2023-04-22T07:50:52.759Z,33.02
2023-04-22T07:53:22.265Z,31.29
2023-04-22T07:55:52.003Z,30.92
2023-04-22T07:58:21.680Z,30.65
2023-04-22T08:00:51.646Z,31.63
2023-04-22T08:03:21.433Z,30.87
2023-04-22T08:05:51.542Z,31.19
2023-04-22T08:08:21.046Z,31.52
2023-04-22T08:10:50.339Z,30.47
2023-04-22T08:13:19.620Z,30.71
2023-04-22T08:15:49.269Z,30.60
2023-04-22T08:18:18.446Z,30.23
2023-04-22T08:20:48.360Z,30.70
2023-04-22T08:23:17.573Z,29.95
2023-04-22T08:25:46.868Z,29.55
2023-04-22T08:28:16.052Z,29.98
2023-04-22T08:30:45.464Z,31.46
2023-04-22T08:33:16.402Z,31.61
2023-04-22T08:35:45.708Z,30.20
2023-04-22T08:38:15.004Z,30.60
2023-04-22T08:40:44.517Z,29.57
2023-04-22T08:43:14.246Z,29.98
2023-04-22T08:45:45.327Z,30.36
2023-04-22T08:48:15.485Z,30.84
2023-04-22T08:50:47.894Z,30.61
2023-04-22T08:53:17.364Z,28.96
2023-04-22T08:55:47.278Z,28.75
2023-04-22T08:58:16.680Z,28.53
2023-04-22T09:00:46.285Z,28.66
2023-04-22T09:03:16.820Z,28.85
2023-04-22T09:05:50.014Z,29.12
2023-04-22T09:08:20.573Z,29.34
2023-04-22T09:10:50.784Z,29.16
2023-04-22T09:13:21.698Z,28.59
2023-04-22T09:15:50.932Z,28.70
2023-04-22T09:18:20.610Z,28.81
2023-04-22T09:20:56.746Z,29.55
2023-04-22T09:23:26.784Z,28.92
2023-04-22T09:25:57.628Z,28.72
2023-04-22T09:28:27.317Z,29.45
2023-04-22T09:31:01.025Z,28.57
2023-04-22T09:33:32.350Z,28.56
2023-04-22T09:36:09.286Z,28.35
2023-04-22T09:38:38.593Z,28.05
2023-04-22T09:41:12.531Z,29.20
2023-04-22T09:43:41.880Z,28.58
2023-04-22T09:46:11.658Z,27.93
2023-04-22T09:48:46.258Z,28.75
2023-04-22T09:51:17.478Z,29.12
2023-04-22T09:54:00.281Z,29.93
2023-04-22T09:57:02.758Z,30.28
2023-04-22T09:59:32.236Z,29.17
2023-04-22T10:02:06.909Z,29.17
2023-04-22T10:04:36.929Z,28.53
2023-04-22T10:07:06.419Z,28.87
2023-04-22T10:09:35.923Z,29.58
2023-04-22T10:12:05.375Z,29.60
2023-04-22T10:14:36.161Z,31.51
2023-04-22T10:17:06.774Z,30.98
2023-04-22T10:19:36.834Z,30.76
2023-04-22T10:22:08.188Z,30.71
2023-04-22T10:24:38.308Z,31.43
2023-04-22T10:27:10.919Z,30.90
2023-04-22T10:29:43.746Z,30.25
2023-04-22T10:32:18.961Z,30.92
2023-04-22T10:34:50.353Z,30.65
2023-04-22T10:37:21.823Z,31.33
2023-04-22T10:40:18.619Z,31.10
2023-04-22T10:42:53.514Z,31.06
2023-04-22T10:45:26.663Z,31.53
2023-04-22T10:47:56.281Z,30.76
2023-04-22T10:50:27.922Z,32.85
2023-04-22T10:53:18.712Z,30.20
2023-04-22T10:55:53.092Z,29.93
2023-04-22T10:58:24.656Z,31.51
2023-04-22T11:01:03.362Z,30.50
2023-04-22T11:03:33.125Z,31.48
2023-04-22T11:06:22.522Z,30.68
2023-04-22T11:09:09.197Z,29.00
2023-04-22T11:11:39.122Z,27.96
2023-04-22T11:14:11.550Z,27.87
2023-04-22T11:16:47.784Z,28.67
2023-04-22T11:19:17.880Z,29.59
2023-04-22T11:21:47.844Z,28.72
2023-04-22T11:24:19.442Z,29.59
2023-04-22T11:26:49.668Z,28.52
2023-04-22T11:29:18.868Z,28.59
2023-04-22T11:31:49.509Z,29.27
2023-04-22T11:34:20.041Z,30.26
2023-04-22T11:36:49.329Z,32.00
2023-04-22T11:39:18.834Z,32.36
2023-04-22T11:41:48.394Z,32.31
2023-04-22T11:44:23.892Z,32.88
2023-04-22T11:46:57.285Z,33.36
2023-04-22T11:49:28.114Z,34.28
2023-04-22T11:51:57.956Z,34.11
2023-04-22T11:54:35.926Z,33.78
2023-04-22T11:57:12.009Z,34.52
2023-04-22T11:59:42.642Z,34.47
2023-04-22T12:02:12.034Z,34.02
2023-04-22T12:04:43.627Z,33.00
2023-04-22T12:07:12.899Z,34.16
2023-04-22T12:09:42.590Z,33.68
2023-04-22T12:12:11.943Z,33.88
2023-04-22T12:14:46.108Z,33.69
2023-04-22T12:17:16.570Z,32.85
2023-04-22T12:19:49.250Z,33.37
2023-04-22T12:22:31.009Z,32.94
2023-04-22T12:25:01.776Z,33.21
2023-04-22T12:27:31.762Z,32.92
2023-04-22T12:30:01.678Z,32.83
2023-04-22T12:32:30.876Z,32.27
2023-04-22T12:35:00.386Z,32.38
2023-04-22T12:37:29.585Z,31.82
2023-04-22T12:39:58.883Z,32.64
2023-04-22T12:42:29.251Z,32.73
2023-04-22T12:44:58.405Z,33.26
2023-04-22T12:47:27.638Z,33.95
2023-04-22T12:49:58.762Z,33.86
2023-04-22T12:52:28.356Z,34.47
